sensor_id;sensor_type;location;lat;lon;timestamp;pressure;altitude;pressure_sealevel;temperature;humidity
79481;BME280;68944;48.262;14.208;2023-04-01T00:01:10;97216.81;;;14.49;nan
79481;BME280;68944;48.262;14.208;2023-04-01T00:03:37;97213.75;;;14.71;nan
79481;BME280;68944;48.262;14.208;2023-04-01T00:06:03;97220.03;;;14.41;nan
79481;BME280;68944;48.262;14.208;2023-04-01T00:08:29;97220.81;;;14.37;nan
79481;BME280;68944;48.262;14.208;2023-04-01T00:10:55;97221.34;;;14.44;nan
79481;BME280;68944;48.262;14.208;2023-04-01T00:13:22;97225.66;;;14.30;nan
79481;BME280;68944;48.262;14.208;2023-04-01T00:15:48;97221.59;;;14.47;nan
79481;BME280;68944;48.262;14.208;2023-04-01T00:18:14;97229.34;;;14.34;nan
79481;BME280;68944;48.262;14.208;2023-04-01T00:20:44;97224.69;;;12.76;nan
79481;BME280;68944;48.262;14.208;2023-04-01T00:23:09;97233.94;;;12.63;nan
79481;BME280;68944;48.262;14.208;2023-04-01T00:25:35;97231.22;;;12.38;nan
79481;BME280;68944;48.262;14.208;2023-04-01T00:28:00;97225.41;;;12.46;nan
79481;BME280;68944;48.262;14.208;2023-04-01T00:30:26;97217.41;;;12.21;nan
79481;BME280;68944;48.262;14.208;2023-04-01T00:32:52;97227.13;;;12.11;nan
79481;BME280;68944;48.262;14.208;2023-04-01T00:35:18;97225.22;;;12.01;nan
79481;BME280;68944;48.262;14.208;2023-04-01T00:37:44;97232.13;;;12.07;nan
79481;BME280;68944;48.262;14.208;2023-04-01T00:40:23;97230.84;;;12.15;nan
79481;BME280;68944;48.262;14.208;2023-04-01T00:42:49;97228.59;;;11.92;nan
79481;BME280;68944;48.262;14.208;2023-04-01T00:47:50;97227.84;;;11.23;nan
79481;BME280;68944;48.262;14.208;2023-04-01T00:50:16;97239.84;;;11.36;nan
79481;BME280;68944;48.262;14.208;2023-04-01T00:52:41;97246.06;;;11.20;nan
79481;BME280;68944;48.262;14.208;2023-04-01T00:55:10;97247.66;;;10.94;nan
79481;BME280;68944;48.262;14.208;2023-04-01T00:57:39;97237.47;;;11.03;nan
79481;BME280;68944;48.262;14.208;2023-04-01T01:00:09;97246.19;;;10.77;nan
79481;BME280;68944;48.262;14.208;2023-04-01T01:02:35;97242.41;;;10.94;nan
79481;BME280;68944;48.262;14.208;2023-04-01T01:05:01;97235.63;;;11.03;nan
79481;BME280;68944;48.262;14.208;2023-04-01T01:08:02;97245.75;;;10.85;nan
79481;BME280;68944;48.262;14.208;2023-04-01T01:10:33;97237.38;;;10.93;nan
79481;BME280;68944;48.262;14.208;2023-04-01T01:15:29;97234.75;;;10.93;nan
79481;BME280;68944;48.262;14.208;2023-04-01T01:20:56;97241.72;;;11.04;nan
79481;BME280;68944;48.262;14.208;2023-04-01T01:26:52;97240.78;;;11.20;nan
79481;BME280;68944;48.262;14.208;2023-04-01T01:32:12;97228.47;;;11.35;nan
79481;BME280;68944;48.262;14.208;2023-04-01T01:37:32;97224.09;;;11.51;nan
79481;BME280;68944;48.262;14.208;2023-04-01T01:40:02;97227.75;;;11.08;nan
79481;BME280;68944;48.262;14.208;2023-04-01T01:42:31;97228.34;;;11.15;nan
79481;BME280;68944;48.262;14.208;2023-04-01T01:45:00;97218.25;;;11.12;nan
79481;BME280;68944;48.262;14.208;2023-04-01T01:47:28;97214.34;;;10.88;nan
79481;BME280;68944;48.262;14.208;2023-04-01T01:49:55;97213.44;;;11.04;nan
79481;BME280;68944;48.262;14.208;2023-04-01T01:52:23;97216.75;;;10.90;nan
79481;BME280;68944;48.262;14.208;2023-04-01T01:54:52;97216.44;;;11.13;nan
79481;BME280;68944;48.262;14.208;2023-04-01T01:57:24;97219.09;;;10.86;nan
79481;BME280;68944;48.262;14.208;2023-04-01T01:59:56;97218.28;;;10.86;nan
79481;BME280;68944;48.262;14.208;2023-04-01T02:02:26;97220.94;;;10.86;nan
79481;BME280;68944;48.262;14.208;2023-04-01T02:04:53;97219.50;;;11.31;nan
79481;BME280;68944;48.262;14.208;2023-04-01T02:07:26;97220.59;;;11.09;nan
79481;BME280;68944;48.262;14.208;2023-04-01T02:09:53;97219.97;;;11.28;nan
79481;BME280;68944;48.262;14.208;2023-04-01T02:12:21;97216.03;;;11.31;nan
79481;BME280;68944;48.262;14.208;2023-04-01T02:14:52;97225.34;;;11.07;nan
79481;BME280;68944;48.262;14.208;2023-04-01T02:17:22;97224.06;;;11.09;nan
79481;BME280;68944;48.262;14.208;2023-04-01T02:19:57;97225.41;;;11.12;nan
79481;BME280;68944;48.262;14.208;2023-04-01T02:22:31;97229.09;;;11.11;nan
79481;BME280;68944;48.262;14.208;2023-04-01T02:25:06;97235.63;;;10.77;nan
79481;BME280;68944;48.262;14.208;2023-04-01T02:27:33;97236.63;;;10.97;nan
79481;BME280;68944;48.262;14.208;2023-04-01T02:29:59;97232.31;;;11.18;nan
79481;BME280;68944;48.262;14.208;2023-04-01T02:32:25;97233.69;;;10.94;nan
79481;BME280;68944;48.262;14.208;2023-04-01T02:34:53;97225.56;;;11.00;nan
79481;BME280;68944;48.262;14.208;2023-04-01T02:37:19;97233.84;;;11.14;nan
79481;BME280;68944;48.262;14.208;2023-04-01T02:39:44;97230.41;;;11.08;nan
79481;BME280;68944;48.262;14.208;2023-04-01T02:42:10;97222.97;;;11.05;nan
79481;BME280;68944;48.262;14.208;2023-04-01T02:44:36;97231.75;;;11.11;nan
79481;BME280;68944;48.262;14.208;2023-04-01T02:47:02;97233.28;;;10.80;nan
79481;BME280;68944;48.262;14.208;2023-04-01T02:49:27;97218.56;;;10.58;nan
79481;BME280;68944;48.262;14.208;2023-04-01T02:51:53;97220.50;;;10.94;nan
79481;BME280;68944;48.262;14.208;2023-04-01T02:54:19;97221.75;;;10.86;nan
79481;BME280;68944;48.262;14.208;2023-04-01T02:56:45;97221.88;;;11.01;nan
79481;BME280;68944;48.262;14.208;2023-04-01T02:59:11;97220.84;;;11.02;nan
79481;BME280;68944;48.262;14.208;2023-04-01T03:01:36;97221.50;;;10.61;nan
79481;BME280;68944;48.262;14.208;2023-04-01T03:04:02;97227.78;;;10.82;nan
79481;BME280;68944;48.262;14.208;2023-04-01T03:06:28;97217.56;;;10.90;nan
79481;BME280;68944;48.262;14.208;2023-04-01T03:08:54;97227.47;;;10.52;nan
79481;BME280;68944;48.262;14.208;2023-04-01T03:11:19;97224.88;;;10.57;nan
79481;BME280;68944;48.262;14.208;2023-04-01T03:13:46;97216.41;;;10.55;nan
79481;BME280;68944;48.262;14.208;2023-04-01T03:16:13;97222.59;;;10.65;nan
79481;BME280;68944;48.262;14.208;2023-04-01T03:18:39;97235.59;;;10.72;nan
79481;BME280;68944;48.262;14.208;2023-04-01T03:21:20;97243.34;;;10.57;nan
79481;BME280;68944;48.262;14.208;2023-04-01T03:23:45;97247.19;;;10.97;nan
79481;BME280;68944;48.262;14.208;2023-04-01T03:26:11;97234.03;;;11.02;nan
79481;BME280;68944;48.262;14.208;2023-04-01T03:28:37;97236.09;;;10.95;nan
79481;BME280;68944;48.262;14.208;2023-04-01T03:31:02;97234.78;;;11.29;nan
79481;BME280;68944;48.262;14.208;2023-04-01T03:33:34;97239.31;;;11.34;nan
79481;BME280;68944;48.262;14.208;2023-04-01T03:36:00;97237.97;;;11.31;nan
79481;BME280;68944;48.262;14.208;2023-04-01T03:38:25;97255.31;;;11.22;nan
79481;BME280;68944;48.262;14.208;2023-04-01T03:40:51;97254.56;;;11.58;nan
79481;BME280;68944;48.262;14.208;2023-04-01T03:43:16;97264.72;;;11.08;nan
79481;BME280;68944;48.262;14.208;2023-04-01T03:45:46;97270.78;;;11.09;nan
79481;BME280;68944;48.262;14.208;2023-04-01T03:48:14;97265.59;;;11.19;nan
79481;BME280;68944;48.262;14.208;2023-04-01T03:50:39;97258.50;;;11.19;nan
79481;BME280;68944;48.262;14.208;2023-04-01T03:53:05;97269.22;;;11.39;nan
79481;BME280;68944;48.262;14.208;2023-04-01T03:55:31;97260.47;;;11.39;nan
79481;BME280;68944;48.262;14.208;2023-04-01T03:57:56;97264.88;;;11.28;nan
79481;BME280;68944;48.262;14.208;2023-04-01T04:00:22;97267.06;;;11.05;nan
79481;BME280;68944;48.262;14.208;2023-04-01T04:02:52;97261.66;;;11.21;nan
79481;BME280;68944;48.262;14.208;2023-04-01T04:05:25;97264.78;;;11.50;nan
79481;BME280;68944;48.262;14.208;2023-04-01T04:07:52;97271.59;;;11.41;nan
79481;BME280;68944;48.262;14.208;2023-04-01T04:10:17;97267.03;;;11.63;nan
79481;BME280;68944;48.262;14.208;2023-04-01T04:12:43;97274.94;;;11.63;nan
79481;BME280;68944;48.262;14.208;2023-04-01T04:15:09;97274.91;;;11.94;nan
79481;BME280;68944;48.262;14.208;2023-04-01T04:17:35;97269.25;;;11.76;nan
79481;BME280;68944;48.262;14.208;2023-04-01T04:20:02;97278.66;;;11.98;nan
79481;BME280;68944;48.262;14.208;2023-04-01T04:22:28;97275.78;;;12.10;nan
79481;BME280;68944;48.262;14.208;2023-04-01T04:24:53;97280.78;;;12.06;nan
79481;BME280;68944;48.262;14.208;2023-04-01T04:27:19;97279.53;;;12.14;nan
79481;BME280;68944;48.262;14.208;2023-04-01T04:29:56;97284.13;;;12.33;nan
79481;BME280;68944;48.262;14.208;2023-04-01T04:32:22;97278.38;;;12.51;nan
79481;BME280;68944;48.262;14.208;2023-04-01T04:34:47;97280.00;;;12.67;nan
79481;BME280;68944;48.262;14.208;2023-04-01T04:37:13;97280.25;;;12.61;nan
79481;BME280;68944;48.262;14.208;2023-04-01T04:39:38;97278.69;;;12.70;nan
79481;BME280;68944;48.262;14.208;2023-04-01T04:42:05;97283.91;;;12.45;nan
79481;BME280;68944;48.262;14.208;2023-04-01T04:44:31;97288.25;;;12.71;nan
79481;BME280;68944;48.262;14.208;2023-04-01T04:46:58;97292.28;;;12.27;nan
79481;BME280;68944;48.262;14.208;2023-04-01T04:49:25;97285.88;;;12.74;nan
79481;BME280;68944;48.262;14.208;2023-04-01T04:51:51;97283.69;;;12.61;nan
79481;BME280;68944;48.262;14.208;2023-04-01T04:54:20;97286.88;;;12.63;nan
79481;BME280;68944;48.262;14.208;2023-04-01T04:56:57;97296.78;;;12.31;nan
79481;BME280;68944;48.262;14.208;2023-04-01T04:59:24;97291.94;;;12.65;nan
79481;BME280;68944;48.262;14.208;2023-04-01T05:01:57;97284.16;;;12.43;nan
79481;BME280;68944;48.262;14.208;2023-04-01T05:04:24;97278.56;;;12.35;nan
79481;BME280;68944;48.262;14.208;2023-04-01T05:06:49;97280.47;;;12.44;nan
79481;BME280;68944;48.262;14.208;2023-04-01T05:09:16;97281.56;;;12.02;nan
79481;BME280;68944;48.262;14.208;2023-04-01T05:11:42;97281.94;;;12.20;nan
79481;BME280;68944;48.262;14.208;2023-04-01T05:14:12;97283.25;;;12.18;nan
79481;BME280;68944;48.262;14.208;2023-04-01T05:16:39;97285.97;;;12.33;nan
79481;BME280;68944;48.262;14.208;2023-04-01T05:19:04;97282.97;;;12.14;nan
79481;BME280;68944;48.262;14.208;2023-04-01T05:21:31;97292.56;;;12.30;nan
79481;BME280;68944;48.262;14.208;2023-04-01T05:23:57;97291.06;;;12.44;nan
79481;BME280;68944;48.262;14.208;2023-04-01T05:26:24;97289.41;;;12.33;nan
79481;BME280;68944;48.262;14.208;2023-04-01T05:28:49;97286.53;;;12.45;nan
79481;BME280;68944;48.262;14.208;2023-04-01T05:31:15;97301.38;;;12.51;nan
79481;BME280;68944;48.262;14.208;2023-04-01T05:33:42;97300.75;;;12.24;nan
79481;BME280;68944;48.262;14.208;2023-04-01T05:36:16;97299.91;;;12.80;nan
79481;BME280;68944;48.262;14.208;2023-04-01T05:38:42;97300.25;;;12.32;nan
79481;BME280;68944;48.262;14.208;2023-04-01T05:41:10;97291.41;;;12.68;nan
79481;BME280;68944;48.262;14.208;2023-04-01T05:43:40;97301.47;;;12.66;nan
79481;BME280;68944;48.262;14.208;2023-04-01T05:46:26;97313.75;;;12.97;nan
79481;BME280;68944;48.262;14.208;2023-04-01T05:49:01;97313.00;;;12.45;nan
79481;BME280;68944;48.262;14.208;2023-04-01T05:51:27;97314.06;;;12.44;nan
79481;BME280;68944;48.262;14.208;2023-04-01T05:53:52;97334.81;;;12.15;nan
79481;BME280;68944;48.262;14.208;2023-04-01T05:56:18;97337.84;;;11.61;nan
79481;BME280;68944;48.262;14.208;2023-04-01T05:58:50;97325.19;;;11.36;nan
79481;BME280;68944;48.262;14.208;2023-04-01T06:01:15;97318.41;;;11.45;nan
79481;BME280;68944;48.262;14.208;2023-04-01T06:03:42;97314.66;;;11.41;nan
79481;BME280;68944;48.262;14.208;2023-04-01T06:06:18;97310.03;;;11.85;nan
79481;BME280;68944;48.262;14.208;2023-04-01T06:08:46;97313.22;;;12.33;nan
79481;BME280;68944;48.262;14.208;2023-04-01T06:11:31;97305.00;;;12.30;nan
79481;BME280;68944;48.262;14.208;2023-04-01T06:14:33;97299.75;;;12.35;nan
79481;BME280;68944;48.262;14.208;2023-04-01T06:17:41;97312.38;;;12.89;nan
79481;BME280;68944;48.262;14.208;2023-04-01T06:26:14;97322.97;;;12.79;nan
79481;BME280;68944;48.262;14.208;2023-04-01T06:51:09;97307.44;;;14.23;nan
79481;BME280;68944;48.262;14.208;2023-04-01T06:54:13;97313.44;;;14.53;nan
79481;BME280;68944;48.262;14.208;2023-04-01T06:57:29;97320.50;;;14.83;nan
79481;BME280;68944;48.262;14.208;2023-04-01T06:59:59;97315.59;;;14.46;nan
79481;BME280;68944;48.262;14.208;2023-04-01T07:02:28;97313.69;;;14.62;nan
79481;BME280;68944;48.262;14.208;2023-04-01T07:04:58;97315.78;;;14.70;nan
79481;BME280;68944;48.262;14.208;2023-04-01T07:07:45;97319.25;;;15.14;nan
79481;BME280;68944;48.262;14.208;2023-04-01T07:10:19;97321.75;;;15.00;nan
79481;BME280;68944;48.262;14.208;2023-04-01T07:13:10;97330.59;;;15.34;nan
79481;BME280;68944;48.262;14.208;2023-04-01T07:16:11;97335.28;;;14.15;nan
79481;BME280;68944;48.262;14.208;2023-04-01T07:18:46;97317.78;;;14.04;nan
79481;BME280;68944;48.262;14.208;2023-04-01T07:21:23;97330.22;;;14.44;nan
79481;BME280;68944;48.262;14.208;2023-04-01T07:23:54;97322.34;;;13.84;nan
79481;BME280;68944;48.262;14.208;2023-04-01T07:26:31;97326.31;;;13.76;nan
79481;BME280;68944;48.262;14.208;2023-04-01T07:29:13;97332.66;;;13.85;nan
79481;BME280;68944;48.262;14.208;2023-04-01T07:37:26;97335.84;;;13.77;nan
79481;BME280;68944;48.262;14.208;2023-04-01T07:40:31;97335.06;;;13.92;nan
79481;BME280;68944;48.262;14.208;2023-04-01T07:49:14;97339.78;;;14.25;nan
79481;BME280;68944;48.262;14.208;2023-04-01T07:51:55;97335.53;;;14.34;nan
79481;BME280;68944;48.262;14.208;2023-04-01T07:54:49;97333.88;;;14.58;nan
79481;BME280;68944;48.262;14.208;2023-04-01T07:57:29;97337.38;;;14.43;nan
79481;BME280;68944;48.262;14.208;2023-04-01T08:05:35;97341.34;;;14.56;nan
79481;BME280;68944;48.262;14.208;2023-04-01T08:14:30;97339.84;;;13.90;nan
79481;BME280;68944;48.262;14.208;2023-04-01T08:20:18;97338.19;;;14.34;nan
79481;BME280;68944;48.262;14.208;2023-04-01T08:22:51;97342.19;;;14.31;nan
79481;BME280;68944;48.262;14.208;2023-04-01T08:25:28;97326.91;;;14.72;nan
79481;BME280;68944;48.262;14.208;2023-04-01T08:28:08;97331.06;;;14.98;nan
79481;BME280;68944;48.262;14.208;2023-04-01T08:30:49;97322.91;;;14.74;nan
79481;BME280;68944;48.262;14.208;2023-04-01T08:41:47;97324.47;;;15.39;nan
79481;BME280;68944;48.262;14.208;2023-04-01T08:47:50;97331.78;;;15.57;nan
79481;BME280;68944;48.262;14.208;2023-04-01T08:56:19;97335.53;;;15.89;nan
79481;BME280;68944;48.262;14.208;2023-04-01T08:59:22;97327.25;;;15.57;nan
79481;BME280;68944;48.262;14.208;2023-04-01T09:02:26;97332.34;;;16.16;nan
79481;BME280;68944;48.262;14.208;2023-04-01T09:05:21;97323.50;;;16.20;nan
79481;BME280;68944;48.262;14.208;2023-04-01T09:07:58;97338.81;;;15.38;nan
79481;BME280;68944;48.262;14.208;2023-04-01T09:10:35;97334.91;;;16.26;nan
79481;BME280;68944;48.262;14.208;2023-04-01T09:30:27;97334.69;;;15.94;nan
79481;BME280;68944;48.262;14.208;2023-04-01T09:33:12;97352.03;;;16.15;nan
79481;BME280;68944;48.262;14.208;2023-04-01T09:35:48;97332.44;;;15.77;nan
79481;BME280;68944;48.262;14.208;2023-04-01T09:38:51;97346.59;;;15.24;nan
79481;BME280;68944;48.262;14.208;2023-04-01T09:41:32;97342.84;;;15.30;nan
79481;BME280;68944;48.262;14.208;2023-04-01T09:47:22;97331.03;;;15.03;nan
79481;BME280;68944;48.262;14.208;2023-04-01T09:55:56;97325.09;;;15.93;nan
79481;BME280;68944;48.262;14.208;2023-04-01T09:58:50;97345.19;;;15.42;nan
79481;BME280;68944;48.262;14.208;2023-04-01T10:07:22;97329.09;;;16.19;nan
79481;BME280;68944;48.262;14.208;2023-04-01T10:27:10;97337.06;;;16.24;nan
79481;BME280;68944;48.262;14.208;2023-04-01T10:30:31;97325.59;;;16.23;nan
79481;BME280;68944;48.262;14.208;2023-04-01T10:33:13;97318.00;;;16.12;nan
79481;BME280;68944;48.262;14.208;2023-04-01T10:38:58;97308.16;;;16.36;nan
79481;BME280;68944;48.262;14.208;2023-04-01T10:45:02;97306.88;;;16.57;nan
79481;BME280;68944;48.262;14.208;2023-04-01T10:56:39;97296.59;;;17.29;nan
79481;BME280;68944;48.262;14.208;2023-04-01T11:06:15;97291.03;;;17.63;nan
79481;BME280;68944;48.262;14.208;2023-04-01T11:09:13;97294.72;;;17.48;nan
79481;BME280;68944;48.262;14.208;2023-04-01T11:14:59;97282.38;;;17.71;nan
79481;BME280;68944;48.262;14.208;2023-04-01T11:20:51;97278.94;;;16.96;nan
79481;BME280;68944;48.262;14.208;2023-04-01T11:35:01;97265.69;;;17.79;nan
79481;BME280;68944;48.262;14.208;2023-04-01T12:10:36;97237.50;;;19.29;nan
79481;BME280;68944;48.262;14.208;2023-04-01T12:21:14;97234.47;;;19.09;nan
79481;BME280;68944;48.262;14.208;2023-04-01T12:29:16;97240.66;;;18.34;nan
79481;BME280;68944;48.262;14.208;2023-04-01T12:48:31;97277.09;;;17.98;nan
79481;BME280;68944;48.262;14.208;2023-04-01T12:51:18;97275.19;;;17.16;nan
79481;BME280;68944;48.262;14.208;2023-04-01T12:54:12;97293.03;;;15.79;nan
79481;BME280;68944;48.262;14.208;2023-04-01T12:57:14;97311.91;;;14.32;nan
79481;BME280;68944;48.262;14.208;2023-04-01T13:05:35;97295.53;;;15.32;nan
79481;BME280;68944;48.262;14.208;2023-04-01T13:19:06;97269.25;;;17.56;nan
79481;BME280;68944;48.262;14.208;2023-04-01T13:22:11;97276.72;;;17.03;nan
79481;BME280;68944;48.262;14.208;2023-04-01T13:27:43;97268.13;;;17.25;nan
79481;BME280;68944;48.262;14.208;2023-04-01T13:30:30;97274.47;;;17.10;nan
79481;BME280;68944;48.262;14.208;2023-04-01T13:33:20;97278.00;;;17.06;nan
79481;BME280;68944;48.262;14.208;2023-04-01T13:36:13;97272.19;;;18.72;nan
79481;BME280;68944;48.262;14.208;2023-04-01T13:38:52;97272.56;;;20.46;nan
79481;BME280;68944;48.262;14.208;2023-04-01T13:44:23;97270.66;;;22.51;nan
79481;BME280;68944;48.262;14.208;2023-04-01T13:53:19;97266.69;;;21.94;nan
79481;BME280;68944;48.262;14.208;2023-04-01T13:56:00;97264.13;;;22.06;nan
79481;BME280;68944;48.262;14.208;2023-04-01T14:12:42;97271.91;;;18.60;nan
79481;BME280;68944;48.262;14.208;2023-04-01T14:21:08;97291.13;;;16.60;nan
79481;BME280;68944;48.262;14.208;2023-04-01T14:37:48;97331.94;;;16.79;nan
79481;BME280;68944;48.262;14.208;2023-04-01T14:40:38;97332.22;;;16.26;nan
79481;BME280;68944;48.262;14.208;2023-04-01T14:57:01;97332.88;;;15.07;nan
79481;BME280;68944;48.262;14.208;2023-04-01T14:59:29;97330.13;;;15.17;nan
79481;BME280;68944;48.262;14.208;2023-04-01T15:02:33;97334.88;;;15.25;nan
79481;BME280;68944;48.262;14.208;2023-04-01T15:04:58;97338.03;;;15.37;nan
79481;BME280;68944;48.262;14.208;2023-04-01T15:16:07;97360.75;;;14.46;nan
79481;BME280;68944;48.262;14.208;2023-04-01T15:26:51;97373.84;;;15.50;nan
79481;BME280;68944;48.262;14.208;2023-04-01T15:32:46;97377.03;;;15.90;nan
79481;BME280;68944;48.262;14.208;2023-04-01T15:35:18;97365.75;;;15.21;nan
79481;BME280;68944;48.262;14.208;2023-04-01T15:38:05;97358.69;;;15.50;nan
79481;BME280;68944;48.262;14.208;2023-04-01T15:55:14;97378.47;;;14.66;nan
79481;BME280;68944;48.262;14.208;2023-04-01T16:23:37;97408.00;;;14.04;nan
79481;BME280;68944;48.262;14.208;2023-04-01T16:26:17;97455.50;;;13.86;nan
79481;BME280;68944;48.262;14.208;2023-04-01T16:28:55;97423.09;;;13.64;nan
79481;BME280;68944;48.262;14.208;2023-04-01T16:34:35;97426.28;;;13.66;nan
79481;BME280;68944;48.262;14.208;2023-04-01T16:37:48;97416.13;;;13.33;nan
79481;BME280;68944;48.262;14.208;2023-04-01T16:42:52;97425.94;;;13.37;nan
79481;BME280;68944;48.262;14.208;2023-04-01T16:48:00;97441.31;;;13.30;nan
79481;BME280;68944;48.262;14.208;2023-04-01T16:53:37;97438.72;;;13.55;nan
79481;BME280;68944;48.262;14.208;2023-04-01T16:56:45;97446.41;;;13.52;nan
79481;BME280;68944;48.262;14.208;2023-04-01T17:01:53;97455.88;;;13.33;nan
79481;BME280;68944;48.262;14.208;2023-04-01T17:04:32;97452.06;;;14.00;nan
79481;BME280;68944;48.262;14.208;2023-04-01T17:07:10;97445.59;;;13.56;nan
79481;BME280;68944;48.262;14.208;2023-04-01T17:09:58;97448.31;;;13.86;nan
79481;BME280;68944;48.262;14.208;2023-04-01T17:12:33;97465.19;;;13.35;nan
79481;BME280;68944;48.262;14.208;2023-04-01T17:17:49;97470.09;;;13.12;nan
79481;BME280;68944;48.262;14.208;2023-04-01T17:20:40;97458.94;;;13.91;nan
79481;BME280;68944;48.262;14.208;2023-04-01T17:23:20;97463.41;;;13.76;nan
79481;BME280;68944;48.262;14.208;2023-04-01T17:26:01;97465.56;;;13.79;nan
79481;BME280;68944;48.262;14.208;2023-04-01T17:42:41;97480.72;;;14.08;nan
79481;BME280;68944;48.262;14.208;2023-04-01T17:46:05;97470.94;;;14.39;nan
79481;BME280;68944;48.262;14.208;2023-04-01T17:48:18;97473.34;;;14.40;nan
79481;BME280;68944;48.262;14.208;2023-04-01T17:53:36;97481.03;;;14.27;nan
79481;BME280;68944;48.262;14.208;2023-04-01T17:56:18;97480.22;;;14.26;nan
79481;BME280;68944;48.262;14.208;2023-04-01T17:59:22;97491.38;;;14.23;nan
79481;BME280;68944;48.262;14.208;2023-04-01T18:05:24;97487.88;;;14.83;nan
79481;BME280;68944;48.262;14.208;2023-04-01T18:08:09;97485.78;;;14.75;nan
79481;BME280;68944;48.262;14.208;2023-04-01T18:13:32;97488.19;;;14.41;nan
79481;BME280;68944;48.262;14.208;2023-04-01T18:19:02;97497.75;;;14.52;nan
79481;BME280;68944;48.262;14.208;2023-04-01T18:21:51;97499.88;;;14.55;nan
79481;BME280;68944;48.262;14.208;2023-04-01T18:24:28;97503.06;;;14.22;nan
79481;BME280;68944;48.262;14.208;2023-04-01T18:27:04;97508.91;;;14.59;nan
79481;BME280;68944;48.262;14.208;2023-04-01T18:32:29;97507.25;;;14.08;nan
79481;BME280;68944;48.262;14.208;2023-04-01T18:35:12;97515.53;;;14.42;nan
79481;BME280;68944;48.262;14.208;2023-04-01T18:37:46;97517.94;;;14.58;nan
79481;BME280;68944;48.262;14.208;2023-04-01T18:45:57;97521.09;;;14.45;nan
79481;BME280;68944;48.262;14.208;2023-04-01T18:48:48;97526.16;;;14.22;nan
79481;BME280;68944;48.262;14.208;2023-04-01T18:51:21;97518.66;;;13.99;nan
79481;BME280;68944;48.262;14.208;2023-04-01T18:53:57;97525.03;;;14.18;nan
79481;BME280;68944;48.262;14.208;2023-04-01T18:56:32;97529.09;;;14.70;nan
79481;BME280;68944;48.262;14.208;2023-04-01T18:59:11;97532.25;;;14.77;nan
79481;BME280;68944;48.262;14.208;2023-04-01T19:07:55;97532.78;;;14.84;nan
79481;BME280;68944;48.262;14.208;2023-04-01T19:15:41;97544.72;;;14.67;nan
79481;BME280;68944;48.262;14.208;2023-04-01T19:21:01;97550.06;;;14.27;nan
79481;BME280;68944;48.262;14.208;2023-04-01T19:23:47;97547.94;;;14.34;nan
79481;BME280;68944;48.262;14.208;2023-04-01T19:29:26;97546.31;;;14.93;nan
79481;BME280;68944;48.262;14.208;2023-04-01T19:37:32;97550.00;;;15.02;nan
79481;BME280;68944;48.262;14.208;2023-04-01T19:57:12;97557.50;;;16.27;nan
79481;BME280;68944;48.262;14.208;2023-04-01T20:03:04;97560.66;;;15.95;nan
79481;BME280;68944;48.262;14.208;2023-04-01T20:05:49;97552.88;;;15.45;nan
79481;BME280;68944;48.262;14.208;2023-04-01T20:11:18;97555.56;;;15.15;nan
79481;BME280;68944;48.262;14.208;2023-04-01T20:16:20;97560.16;;;14.75;nan
79481;BME280;68944;48.262;14.208;2023-04-01T20:18:59;97563.59;;;14.80;nan
79481;BME280;68944;48.262;14.208;2023-04-01T20:21:46;97560.69;;;14.92;nan
79481;BME280;68944;48.262;14.208;2023-04-01T20:24:35;97565.69;;;14.98;nan
79481;BME280;68944;48.262;14.208;2023-04-01T20:27:32;97563.31;;;15.07;nan
79481;BME280;68944;48.262;14.208;2023-04-01T20:30:23;97563.81;;;15.34;nan
79481;BME280;68944;48.262;14.208;2023-04-01T20:33:02;97571.47;;;15.55;nan
79481;BME280;68944;48.262;14.208;2023-04-01T20:35:56;97571.25;;;15.22;nan
79481;BME280;68944;48.262;14.208;2023-04-01T20:44:21;97569.16;;;15.97;nan
79481;BME280;68944;48.262;14.208;2023-04-01T20:52:57;97569.81;;;15.64;nan
79481;BME280;68944;48.262;14.208;2023-04-01T21:02:08;97585.91;;;15.04;nan
79481;BME280;68944;48.262;14.208;2023-04-01T21:08:01;97585.41;;;14.82;nan
79481;BME280;68944;48.262;14.208;2023-04-01T21:10:59;97583.22;;;15.34;nan
79481;BME280;68944;48.262;14.208;2023-04-01T21:13:56;97584.03;;;15.15;nan
79481;BME280;68944;48.262;14.208;2023-04-01T21:19:45;97588.03;;;15.07;nan
79481;BME280;68944;48.262;14.208;2023-04-01T21:25:20;97599.44;;;15.13;nan
79481;BME280;68944;48.262;14.208;2023-04-01T21:33:28;97599.44;;;15.28;nan
79481;BME280;68944;48.262;14.208;2023-04-01T22:04:59;97623.09;;;15.09;nan
79481;BME280;68944;48.262;14.208;2023-04-01T22:07:51;97617.53;;;15.01;nan
79481;BME280;68944;48.262;14.208;2023-04-01T22:12:59;97612.22;;;15.16;nan
79481;BME280;68944;48.262;14.208;2023-04-01T22:15:48;97615.69;;;14.96;nan
79481;BME280;68944;48.262;14.208;2023-04-01T22:18:31;97611.16;;;14.92;nan
79481;BME280;68944;48.262;14.208;2023-04-01T22:26:29;97625.50;;;15.11;nan
79481;BME280;68944;48.262;14.208;2023-04-01T22:29:06;97626.59;;;14.80;nan
79481;BME280;68944;48.262;14.208;2023-04-01T22:31:55;97636.13;;;14.66;nan
79481;BME280;68944;48.262;14.208;2023-04-01T22:37:22;97632.66;;;13.79;nan
79481;BME280;68944;48.262;14.208;2023-04-01T22:43:04;97642.06;;;13.50;nan
79481;BME280;68944;48.262;14.208;2023-04-01T22:45:58;97640.19;;;13.50;nan
79481;BME280;68944;48.262;14.208;2023-04-01T22:48:50;97645.22;;;13.47;nan
79481;BME280;68944;48.262;14.208;2023-04-01T22:51:39;97651.00;;;13.39;nan
79481;BME280;68944;48.262;14.208;2023-04-01T22:54:39;97642.25;;;13.85;nan
79481;BME280;68944;48.262;14.208;2023-04-01T23:02:33;97648.69;;;14.04;nan
79481;BME280;68944;48.262;14.208;2023-04-01T23:05:04;97641.25;;;14.06;nan
79481;BME280;68944;48.262;14.208;2023-04-01T23:10:28;97656.03;;;13.35;nan
79481;BME280;68944;48.262;14.208;2023-04-01T23:12:58;97661.34;;;13.35;nan
79481;BME280;68944;48.262;14.208;2023-04-01T23:15:27;97656.72;;;13.62;nan
79481;BME280;68944;48.262;14.208;2023-04-01T23:18:14;97658.25;;;13.53;nan